Time;durP1;ratioP1;P1;durP2;ratioP2;P2;SDS_P1;SDS_P2;PMS_P1;PMS_P2;Temp;Humidity;BMP_temperature;BMP_pressure;BME280_temperature;BME280_humidity;BME280_pressure;Samples;Min_cycle;Max_cycle;Signal;HPM_P1;HPM_P2
2022/05/27 00:01:06;;;;;;;0.50;0.50;;;23.40;86.10;;;;;;5053303;28;20191;-78
2022/05/27 00:03:33;;;;;;;2.42;0.60;;;23.30;86.20;;;;;;5053263;28;20224;-77
2022/05/27 00:06:00;;;;;;;2.17;0.60;;;23.30;86.30;;;;;;5053990;28;20277;-77
2022/05/27 00:08:28;;;;;;;0.70;0.60;;;23.40;86.60;;;;;;5052913;28;20235;-77
2022/05/27 00:10:55;;;;;;;1.30;0.55;;;23.40;86.80;;;;;;5052866;28;20291;-77
2022/05/27 00:13:23;;;;;;;1.10;0.93;;;23.40;86.90;;;;;;5053079;28;20216;-77
2022/05/27 00:15:50;;;;;;;3.00;0.60;;;23.40;87.00;;;;;;5053140;28;20253;-77
2022/05/27 00:18:18;;;;;;;3.17;0.52;;;23.40;87.10;;;;;;5052765;28;20210;-77
2022/05/27 00:20:45;;;;;;;1.40;0.47;;;23.40;87.20;;;;;;5052673;28;20228;-77
2022/05/27 00:23:12;;;;;;;1.92;0.65;;;23.40;87.30;;;;;;5052709;28;20568;-77
2022/05/27 00:25:39;;;;;;;4.22;1.35;;;23.30;87.30;;;;;;5053032;28;20307;-77
2022/05/27 00:28:07;;;;;;;3.70;0.80;;;23.30;87.50;;;;;;5052669;28;20739;-77
2022/05/27 00:30:34;;;;;;;1.30;0.63;;;23.30;87.60;;;;;;5053026;28;20200;-77
2022/05/27 00:33:01;;;;;;;2.85;0.60;;;23.30;87.70;;;;;;5052565;28;20789;-77
2022/05/27 00:35:29;;;;;;;1.25;0.60;;;23.30;87.80;;;;;;5052892;28;20291;-77
2022/05/27 00:37:56;;;;;;;1.38;0.60;;;23.30;87.90;;;;;;5052585;28;20648;-77
2022/05/27 00:40:25;;;;;;;1.60;0.60;;;23.30;87.90;;;;;;5052772;28;20218;-77
2022/05/27 00:42:51;;;;;;;0.77;0.50;;;23.30;88.00;;;;;;5055551;28;20630;-77
2022/05/27 00:45:21;;;;;;;0.40;0.40;;;23.30;88.00;;;;;;5056450;28;20539;-77
2022/05/27 00:47:51;;;;;;;0.40;0.40;;;23.30;88.10;;;;;;5056409;28;20287;-77
2022/05/27 00:50:20;;;;;;;1.65;0.57;;;23.30;88.10;;;;;;5056329;28;20192;-77
2022/05/27 00:52:49;;;;;;;0.55;0.55;;;23.30;88.10;;;;;;5055890;28;20216;-77
2022/05/27 00:55:19;;;;;;;0.68;0.50;;;23.30;88.10;;;;;;5056221;28;20203;-77
2022/05/27 00:57:50;;;;;;;1.23;0.65;;;23.30;88.20;;;;;;5056231;28;20200;-77
2022/05/27 01:00:20;;;;;;;1.40;0.45;;;23.30;88.30;;;;;;5056131;28;20214;-77
2022/05/27 01:02:47;;;;;;;0.50;0.50;;;23.20;88.20;;;;;;5055850;28;20228;-77
2022/05/27 01:05:17;;;;;;;0.68;0.68;;;23.30;88.30;;;;;;5056683;28;20210;-77
2022/05/27 01:07:43;;;;;;;0.50;0.50;;;23.20;88.20;;;;;;5056041;28;20223;-77
2022/05/27 01:10:15;;;;;;;1.70;0.82;;;23.30;88.30;;;;;;5055984;28;20283;-77
2022/05/27 01:12:57;;;;;;;0.60;0.60;;;23.20;88.10;;;;;;5055641;28;20236;-77
2022/05/27 01:15:34;;;;;;;0.70;0.60;;;23.30;88.20;;;;;;5055971;28;20199;-77
2022/05/27 01:18:15;;;;;;;0.40;0.40;;;23.20;88.40;;;;;;5055901;28;20184;-77
2022/05/27 01:20:50;;;;;;;1.60;0.52;;;23.30;88.40;;;;;;5055753;28;20208;-77
2022/05/27 01:23:59;;;;;;;1.98;0.70;;;23.20;88.60;;;;;;5055376;28;20227;-77
2022/05/27 01:26:45;;;;;;;0.65;0.50;;;23.30;88.30;;;;;;5019546;28;20203;-77
2022/05/27 01:29:57;;;;;;;1.50;0.50;;;23.30;88.40;;;;;;5055365;28;20180;-77
2022/05/27 01:32:34;;;;;;;0.95;0.40;;;23.30;88.60;;;;;;5019684;28;20303;-77
2022/05/27 01:35:09;;;;;;;0.98;0.50;;;23.20;88.60;;;;;;5055563;28;20188;-77
2022/05/27 01:37:48;;;;;;;0.55;0.55;;;23.20;88.70;;;;;;5055525;28;20198;-77
2022/05/27 01:40:26;;;;;;;0.50;0.50;;;23.30;88.70;;;;;;5055108;28;20697;-77
2022/05/27 01:42:58;;;;;;;1.38;0.60;;;23.20;88.60;;;;;;5055120;28;20638;-77
2022/05/27 01:45:32;;;;;;;0.50;0.50;;;23.20;88.60;;;;;;5055084;28;20551;-77
2022/05/27 01:48:06;;;;;;;0.50;0.50;;;23.20;88.60;;;;;;5055351;28;20207;-77
2022/05/27 01:50:38;;;;;;;0.55;0.50;;;23.20;88.60;;;;;;5055291;28;20180;-77
2022/05/27 01:53:10;;;;;;;0.68;0.68;;;23.20;88.70;;;;;;5054293;28;20224;-77
2022/05/27 01:55:41;;;;;;;1.23;0.52;;;23.30;88.80;;;;;;5054853;28;20279;-78
2022/05/27 01:58:12;;;;;;;0.50;0.50;;;23.20;88.90;;;;;;5054782;28;20628;-78
2022/05/27 02:00:41;;;;;;;0.40;0.40;;;23.20;89.10;;;;;;5055058;28;20306;-78
2022/05/27 02:03:15;;;;;;;1.77;0.85;;;23.20;89.30;;;;;;5055188;28;20228;-78
2022/05/27 02:05:49;;;;;;;6.65;0.75;;;23.30;89.50;;;;;;5054701;28;20184;-78
2022/05/27 02:08:20;;;;;;;1.75;0.50;;;23.30;89.70;;;;;;5054908;28;20192;-78
2022/05/27 02:10:53;;;;;;;0.68;0.55;;;23.30;89.80;;;;;;5054857;28;20187;-78
2022/05/27 02:13:26;;;;;;;1.33;0.60;;;23.30;89.80;;;;;;5054780;28;20230;-79
2022/05/27 02:15:54;;;;;;;7.22;0.95;;;23.30;89.90;;;;;;5054824;28;20188;-79
2022/05/27 02:18:26;;;;;;;3.58;0.60;;;23.20;90.00;;;;;;5054383;28;20200;-78
2022/05/27 02:20:58;;;;;;;2.22;0.70;;;23.30;90.10;;;;;;5055008;28;20300;-78
2022/05/27 02:23:30;;;;;;;1.35;0.60;;;23.30;90.20;;;;;;5054558;28;20227;-78
2022/05/27 02:25:58;;;;;;;2.35;0.73;;;23.30;90.20;;;;;;5054262;28;20683;-78
2022/05/27 02:28:28;;;;;;;2.85;0.70;;;23.20;90.20;;;;;;5054236;28;20202;-78
2022/05/27 02:31:03;;;;;;;1.05;0.68;;;23.20;90.20;;;;;;5054446;28;20309;-78
2022/05/27 02:36:24;;;;;;;2.65;0.43;;;23.20;90.20;;;;;;5054164;28;20188;-78
2022/05/27 02:38:52;;;;;;;1.45;0.70;;;23.20;90.20;;;;;;5054351;28;20555;-77
2022/05/27 02:41:27;;;;;;;1.67;0.60;;;23.20;90.30;;;;;;5053864;28;20224;-77
2022/05/27 02:44:07;;;;;;;1.52;0.60;;;23.20;90.30;;;;;;5054176;28;20247;-77
2022/05/27 02:46:43;;;;;;;1.98;0.57;;;23.20;90.40;;;;;;5053897;28;20184;-77
2022/05/27 02:49:18;;;;;;;2.38;0.60;;;23.20;90.30;;;;;;5054151;28;20274;-77
2022/05/27 02:51:52;;;;;;;2.28;0.65;;;23.20;90.30;;;;;;5054142;28;20194;-77
2022/05/27 02:54:26;;;;;;;1.80;0.70;;;23.20;90.40;;;;;;5054232;28;20195;-77
2022/05/27 02:57:05;;;;;;;2.15;0.70;;;23.20;90.40;;;;;;5054051;28;20191;-77
2022/05/27 02:59:35;;;;;;;0.70;0.70;;;23.20;90.30;;;;;;5053926;28;20204;-77
2022/05/27 03:02:07;;;;;;;1.98;0.90;;;23.10;90.40;;;;;;5053646;28;20208;-77
2022/05/27 03:04:36;;;;;;;1.15;0.70;;;23.20;90.30;;;;;;5053698;28;20280;-77
2022/05/27 03:07:14;;;;;;;0.80;0.63;;;23.10;90.30;;;;;;5053837;28;20210;-77
2022/05/27 03:09:50;;;;;;;1.20;0.60;;;23.20;90.30;;;;;;5053906;28;20184;-77
2022/05/27 03:12:30;;;;;;;0.50;0.50;;;23.20;90.30;;;;;;5053788;28;20224;-77
2022/05/27 03:15:09;;;;;;;3.75;0.75;;;23.20;90.30;;;;;;5053440;28;20640;-77
2022/05/27 03:17:45;;;;;;;3.35;0.60;;;23.20;90.30;;;;;;5053788;28;20185;-77
2022/05/27 03:20:35;;;;;;;0.57;0.57;;;23.20;90.40;;;;;;5053604;28;20208;-77
2022/05/27 03:23:19;;;;;;;0.47;0.47;;;23.20;90.30;;;;;;5053597;28;20219;-77
2022/05/27 03:25:50;;;;;;;1.77;0.60;;;23.20;90.30;;;;;;5053646;28;20195;-77
2022/05/27 03:28:24;;;;;;;0.70;0.70;;;23.10;90.40;;;;;;5053288;28;20195;-77
2022/05/27 03:30:57;;;;;;;3.60;0.57;;;23.20;90.40;;;;;;5053633;28;20185;-77
2022/05/27 03:33:30;;;;;;;0.77;0.40;;;23.10;90.30;;;;;;5053234;28;20586;-77
2022/05/27 03:36:06;;;;;;;1.63;0.57;;;23.10;90.30;;;;;;5053487;28;20192;-77
2022/05/27 03:38:39;;;;;;;0.65;0.50;;;23.10;90.30;;;;;;5053481;28;20184;-77
2022/05/27 03:41:10;;;;;;;3.53;0.70;;;23.10;90.30;;;;;;5053421;28;20208;-77
2022/05/27 03:43:38;;;;;;;3.30;0.50;;;23.10;90.30;;;;;;5053404;28;20230;-77
2022/05/27 03:46:06;;;;;;;2.03;0.68;;;23.10;90.20;;;;;;5053393;28;20200;-77
2022/05/27 03:48:35;;;;;;;0.50;0.50;;;23.10;90.20;;;;;;5053390;28;20254;-77
2022/05/27 03:51:08;;;;;;;5.88;0.77;;;23.10;90.20;;;;;;5053327;28;20196;-77
2022/05/27 03:56:35;;;;;;;1.85;0.75;;;23.10;90.30;;;;;;4991856;28;20179;-77
2022/05/27 03:59:03;;;;;;;1.77;0.70;;;23.10;90.30;;;;;;4991774;28;20238;-77
2022/05/27 04:01:32;;;;;;;1.10;0.68;;;23.10;90.30;;;;;;5019203;28;20223;-77
2022/05/27 04:04:00;;;;;;;2.00;0.52;;;23.10;90.20;;;;;;5052917;28;20587;-77
2022/05/27 04:06:29;;;;;;;2.05;0.80;;;23.10;90.20;;;;;;5053207;28;20227;-77
2022/05/27 04:08:57;;;;;;;2.30;0.63;;;23.10;90.10;;;;;;5052874;28;20638;-77
2022/05/27 04:11:24;;;;;;;0.50;0.50;;;23.10;90.10;;;;;;5052856;28;20231;-77
2022/05/27 04:13:51;;;;;;;1.80;0.70;;;23.10;90.10;;;;;;5053063;28;20578;-77
2022/05/27 04:16:18;;;;;;;2.50;0.70;;;23.10;90.10;;;;;;5053481;28;20283;-77
2022/05/27 04:18:45;;;;;;;4.32;1.17;;;23.10;90.10;;;;;;5056681;28;20203;-77
2022/05/27 04:21:12;;;;;;;3.67;0.95;;;23.10;90.10;;;;;;5056788;28;20314;-77
2022/05/27 04:23:41;;;;;;;1.95;0.55;;;23.10;90.10;;;;;;5056779;28;20216;-77
2022/05/27 04:26:08;;;;;;;1.95;0.85;;;23.10;90.10;;;;;;5056860;28;20208;-77
2022/05/27 04:28:35;;;;;;;2.20;0.60;;;23.10;90.10;;;;;;5056755;28;20200;-77
2022/05/27 04:31:03;;;;;;;3.85;0.60;;;23.10;90.10;;;;;;5056707;28;20207;-77
2022/05/27 04:33:29;;;;;;;5.53;0.80;;;23.10;90.10;;;;;;5056580;28;20216;-77
2022/05/27 04:35:57;;;;;;;4.70;0.68;;;23.10;90.10;;;;;;5056321;28;20204;-77
2022/05/27 04:38:24;;;;;;;0.60;0.60;;;23.10;90.10;;;;;;5056590;28;20200;-77
2022/05/27 04:40:52;;;;;;;1.40;0.63;;;23.10;90.10;;;;;;5056467;28;20220;-77
2022/05/27 04:43:19;;;;;;;1.30;0.43;;;23.10;90.00;;;;;;5056410;28;20226;-77
2022/05/27 04:45:46;;;;;;;0.98;0.70;;;23.10;90.00;;;;;;5056136;28;20211;-77
2022/05/27 04:48:13;;;;;;;3.28;0.60;;;23.10;90.00;;;;;;5056426;28;20206;-77
2022/05/27 04:50:40;;;;;;;3.65;0.65;;;23.10;90.00;;;;;;5056320;28;20196;-77
2022/05/27 04:53:09;;;;;;;3.08;0.50;;;23.10;90.00;;;;;;5055922;28;20588;-77
2022/05/27 04:55:37;;;;;;;2.72;0.60;;;23.10;90.00;;;;;;5055970;28;20668;-77
2022/05/27 04:58:06;;;;;;;0.50;0.50;;;23.10;90.00;;;;;;5055920;28;20295;-77
2022/05/27 05:00:35;;;;;;;1.58;0.60;;;23.10;90.00;;;;;;5056120;28;20574;-77
2022/05/27 05:03:02;;;;;;;0.70;0.40;;;23.10;90.00;;;;;;5055795;28;20263;-77
2022/05/27 05:05:32;;;;;;;0.52;0.52;;;23.10;90.00;;;;;;5055760;28;20630;-77
2022/05/27 05:08:02;;;;;;;0.70;0.60;;;23.10;90.00;;;;;;5060081;28;20271;-81
2022/05/27 05:10:30;;;;;;;0.93;0.60;;;23.10;90.00;;;;;;5060003;28;20275;-81
2022/05/27 05:12:57;;;;;;;0.80;0.77;;;23.10;90.00;;;;;;5059984;28;20311;-80
2022/05/27 05:15:27;;;;;;;1.65;0.68;;;23.10;90.00;;;;;;5060526;28;20207;-81
2022/05/27 05:17:54;;;;;;;0.45;0.45;;;23.10;90.00;;;;;;5060370;28;20291;-84
2022/05/27 05:20:25;;;;;;;2.53;0.50;;;23.10;90.00;;;;;;5059751;28;20373;-80
2022/05/27 05:22:52;;;;;;;1.48;0.70;;;23.10;90.00;;;;;;5058420;28;20307;-80
2022/05/27 05:25:19;;;;;;;1.63;0.70;;;23.10;90.10;;;;;;5058458;28;20238;-80
2022/05/27 05:27:46;;;;;;;1.30;0.63;;;23.10;90.00;;;;;;5058229;28;20287;-80
2022/05/27 05:30:15;;;;;;;2.55;0.60;;;23.10;90.10;;;;;;5058682;28;20290;-80
2022/05/27 05:32:43;;;;;;;4.82;0.70;;;23.10;90.10;;;;;;5058344;28;20220;-80
2022/05/27 05:35:13;;;;;;;4.78;0.80;;;23.10;90.10;;;;;;5058252;28;20682;-80
2022/05/27 05:37:39;;;;;;;0.60;0.50;;;23.10;90.40;;;;;;5059773;28;20220;-80
2022/05/27 05:40:08;;;;;;;0.88;0.77;;;23.10;90.50;;;;;;5059733;28;20239;-80
2022/05/27 05:42:36;;;;;;;1.17;0.98;;;23.10;90.20;;;;;;5059733;28;20227;-80
2022/05/27 05:45:03;;;;;;;0.90;0.82;;;23.10;90.20;;;;;;5059739;28;20204;-80
2022/05/27 05:47:30;;;;;;;3.25;0.60;;;23.10;90.30;;;;;;5059575;28;20206;-80
2022/05/27 05:49:58;;;;;;;1.50;0.75;;;23.10;90.30;;;;;;5060174;28;20223;-80
2022/05/27 05:52:25;;;;;;;1.75;0.60;;;23.10;90.30;;;;;;5058663;28;20231;-80
2022/05/27 05:54:52;;;;;;;1.25;0.70;;;23.10;90.30;;;;;;5057684;28;20227;-80
2022/05/27 05:57:18;;;;;;;0.88;0.70;;;23.10;90.30;;;;;;5057705;28;20235;-80
2022/05/27 05:59:45;;;;;;;3.08;0.55;;;23.10;90.30;;;;;;5057682;28;20623;-80
2022/05/27 06:02:12;;;;;;;1.52;0.50;;;23.10;90.30;;;;;;5057305;28;20231;-80
2022/05/27 06:04:39;;;;;;;2.60;0.60;;;23.10;90.40;;;;;;5058021;28;20185;-80
2022/05/27 06:07:07;;;;;;;0.73;0.40;;;23.10;90.50;;;;;;5057532;28;20387;-80
2022/05/27 06:09:34;;;;;;;0.45;0.45;;;23.20;90.60;;;;;;5057655;28;20239;-80
2022/05/27 06:12:03;;;;;;;0.75;0.63;;;23.20;90.60;;;;;;5057473;28;20236;-80
2022/05/27 06:14:30;;;;;;;3.72;0.60;;;23.20;90.70;;;;;;5057623;28;20208;-80
2022/05/27 06:16:56;;;;;;;5.38;0.77;;;23.20;90.70;;;;;;5058221;28;20294;-80
2022/05/27 06:19:23;;;;;;;0.93;0.70;;;23.20;90.80;;;;;;5057745;28;20204;-80
2022/05/27 06:21:50;;;;;;;15.02;0.82;;;23.20;90.90;;;;;;5057350;28;20317;-80
2022/05/27 06:24:18;;;;;;;5.55;0.80;;;23.20;90.90;;;;;;5057305;28;20240;-80
2022/05/27 06:26:45;;;;;;;1.40;0.75;;;23.20;91.00;;;;;;5057249;28;20232;-80
2022/05/27 06:34:41;;;;;;;8.77;1.23;;;23.20;91.10;;;;;;5066104;28;20207;-80
2022/05/27 06:37:14;;;;;;;2.60;0.70;;;23.20;91.30;;;;;;5059773;28;20295;-80
2022/05/27 06:39:43;;;;;;;1.65;0.80;;;23.20;91.30;;;;;;5060671;28;20195;-80
2022/05/27 06:42:12;;;;;;;2.38;0.70;;;23.20;91.30;;;;;;5060962;28;20257;-80
2022/05/27 06:44:40;;;;;;;3.10;0.68;;;23.20;91.40;;;;;;5062147;28;20208;-80
2022/05/27 06:47:10;;;;;;;1.58;0.60;;;23.20;91.40;;;;;;5061314;28;20265;-80
2022/05/27 06:49:38;;;;;;;6.82;0.80;;;23.20;91.50;;;;;;5061864;28;20211;-81
2022/05/27 06:52:08;;;;;;;7.68;0.80;;;23.20;91.60;;;;;;5060929;28;20199;-81
2022/05/27 06:54:37;;;;;;;3.65;0.73;;;23.20;91.60;;;;;;5060409;28;20250;-80
2022/05/27 06:57:08;;;;;;;1.98;0.80;;;23.20;91.70;;;;;;5060747;28;20207;-80
2022/05/27 06:59:38;;;;;;;1.83;0.65;;;23.20;91.80;;;;;;5061154;28;20177;-79
2022/05/27 07:02:07;;;;;;;2.38;1.00;;;23.20;91.90;;;;;;5060131;28;20227;-79
2022/05/27 07:04:35;;;;;;;3.13;0.70;;;23.20;91.90;;;;;;5060984;28;20196;-80
2022/05/27 07:07:04;;;;;;;4.45;1.10;;;23.20;91.90;;;;;;5060790;28;20200;-79
2022/05/27 07:09:35;;;;;;;1.30;0.60;;;23.20;91.90;;;;;;5060758;28;20211;-79
2022/05/27 07:12:04;;;;;;;1.77;0.90;;;23.20;91.90;;;;;;5061195;28;20185;-79
2022/05/27 07:14:33;;;;;;;0.40;0.40;;;23.20;91.90;;;;;;5060959;28;20674;-79
2022/05/27 07:17:00;;;;;;;1.83;0.60;;;23.20;91.90;;;;;;5061776;28;20200;-79
2022/05/27 07:19:29;;;;;;;3.97;0.80;;;23.20;92.10;;;;;;5060788;28;20203;-79
2022/05/27 07:21:56;;;;;;;4.18;0.70;;;23.20;92.10;;;;;;5060129;28;20223;-79
2022/05/27 07:24:25;;;;;;;3.03;0.65;;;23.20;92.20;;;;;;5060334;28;20254;-79
2022/05/27 07:26:52;;;;;;;6.93;0.60;;;23.20;92.20;;;;;;5061696;28;20200;-79
2022/05/27 07:29:20;;;;;;;2.97;0.95;;;23.20;92.30;;;;;;5061004;28;20215;-79
2022/05/27 07:31:48;;;;;;;1.75;0.70;;;23.20;92.40;;;;;;5060652;28;20196;-80
2022/05/27 07:34:15;;;;;;;2.78;0.77;;;23.20;92.50;;;;;;5059678;28;20247;-80
2022/05/27 07:36:42;;;;;;;7.90;0.75;;;23.20;92.60;;;;;;5060437;28;20273;-80
2022/05/27 07:39:09;;;;;;;4.93;1.00;;;23.20;92.80;;;;;;5057532;28;20200;-80
2022/05/27 07:41:37;;;;;;;1.95;0.70;;;23.20;92.80;;;;;;5056611;28;20699;-79
2022/05/27 07:44:05;;;;;;;6.07;0.82;;;23.30;92.90;;;;;;5054404;28;20294;-78
2022/05/27 07:46:33;;;;;;;8.65;0.90;;;23.30;92.90;;;;;;5053009;28;20667;-78
2022/05/27 07:49:03;;;;;;;3.75;0.90;;;23.20;92.50;;;;;;5053390;28;20206;-78
2022/05/27 07:51:30;;;;;;;4.13;0.90;;;23.20;91.90;;;;;;5054490;28;20220;-78
2022/05/27 07:53:57;;;;;;;7.28;0.95;;;23.10;91.50;;;;;;5058184;28;20639;-79
2022/05/27 07:56:24;;;;;;;9.23;1.38;;;23.00;91.20;;;;;;5058165;28;20643;-79
2022/05/27 07:58:51;;;;;;;10.27;1.30;;;23.00;90.90;;;;;;5059333;28;20231;-79
2022/05/27 08:01:17;;;;;;;8.52;1.00;;;22.90;90.50;;;;;;5059993;28;20258;-81
2022/05/27 08:03:44;;;;;;;1.67;0.88;;;22.90;90.10;;;;;;5085261;22;20288;-82
2022/05/27 08:06:13;;;;;;;4.18;0.77;;;22.80;89.40;;;;;;5061941;28;20223;-80
2022/05/27 08:08:39;;;;;;;1.40;0.50;;;22.80;89.10;;;;;;5062722;28;20196;-82
2022/05/27 08:11:07;;;;;;;2.35;0.63;;;22.70;88.70;;;;;;5062373;28;20291;-81
2022/05/27 08:13:35;;;;;;;0.95;0.70;;;22.70;88.10;;;;;;5061457;28;20220;-82
2022/05/27 08:16:02;;;;;;;0.80;0.60;;;22.70;87.80;;;;;;5061278;28;20709;-80
2022/05/27 08:18:29;;;;;;;2.13;0.73;;;22.70;87.00;;;;;;5061260;28;20299;-81
2022/05/27 08:20:55;;;;;;;1.92;1.25;;;22.70;86.60;;;;;;5061601;28;20207;-84
2022/05/27 08:23:24;;;;;;;1.65;0.50;;;22.70;86.00;;;;;;5061592;28;20250;-84
2022/05/27 08:25:52;;;;;;;4.18;0.95;;;22.70;85.60;;;;;;5061294;28;20228;-81
2022/05/27 08:28:22;;;;;;;1.85;0.90;;;22.70;85.00;;;;;;5060951;28;20207;-81
2022/05/27 08:30:49;;;;;;;2.42;0.80;;;22.70;84.30;;;;;;5060791;28;20243;-82
2022/05/27 08:33:16;;;;;;;1.50;1.17;;;22.70;83.80;;;;;;5060341;28;20714;-81
2022/05/27 08:38:33;;;;;;;1.10;0.80;;;22.80;83.20;;;;;;5061746;28;20184;-82
2022/05/27 08:41:25;;;;;;;2.28;0.77;;;22.80;82.60;;;;;;5063213;28;20234;-80
2022/05/27 08:44:19;;;;;;;0.75;0.73;;;22.90;82.60;;;;;;5062686;28;20219;-83
2022/05/27 08:46:55;;;;;;;2.35;1.10;;;22.90;82.60;;;;;;5060277;28;20272;-80
2022/05/27 08:49:26;;;;;;;2.60;0.73;;;22.90;82.60;;;;;;5059872;28;20180;-78
2022/05/27 08:51:57;;;;;;;0.98;0.98;;;22.90;82.60;;;;;;5059120;28;20268;-78
2022/05/27 08:54:30;;;;;;;9.23;1.52;;;23.00;82.30;;;;;;5060087;28;20315;-82
2022/05/27 08:59:52;;;;;;;2.55;1.05;;;23.00;81.70;;;;;;5058475;28;20191;-78
2022/05/27 09:02:26;;;;;;;3.78;1.38;;;23.00;81.50;;;;;;5062488;28;20232;-79
2022/05/27 09:05:03;;;;;;;1.70;1.17;;;23.00;81.30;;;;;;5064189;28;20273;-77
2022/05/27 09:07:37;;;;;;;7.00;1.40;;;23.10;81.20;;;;;;5060193;28;20198;-79
2022/05/27 09:10:10;;;;;;;2.33;1.20;;;23.10;81.10;;;;;;5060159;28;20248;-80
2022/05/27 09:12:46;;;;;;;5.65;1.60;;;23.10;81.00;;;;;;5059906;28;20267;-79
2022/05/27 09:15:26;;;;;;;5.97;1.20;;;23.10;80.60;;;;;;5057963;28;20184;-80
2022/05/27 09:18:03;;;;;;;3.58;1.10;;;23.10;79.90;;;;;;5057171;28;20220;-79
2022/05/27 09:20:44;;;;;;;4.85;1.25;;;23.10;79.30;;;;;;5058970;28;20271;-78
2022/05/27 09:23:30;;;;;;;5.88;1.25;;;23.10;78.90;;;;;;5059076;28;20262;-79
2022/05/27 09:26:04;;;;;;;3.72;1.30;;;23.10;78.70;;;;;;5057089;28;20271;-78
2022/05/27 09:28:41;;;;;;;5.80;0.90;;;23.00;78.20;;;;;;5056264;28;20191;-78
2022/05/27 09:31:14;;;;;;;4.63;1.17;;;23.00;77.80;;;;;;5058676;28;20180;-79
2022/05/27 09:33:41;;;;;;;2.22;1.30;;;23.00;77.60;;;;;;5056847;28;20699;-77
2022/05/27 09:36:13;;;;;;;11.48;1.23;;;23.00;77.30;;;;;;5057440;28;20288;-80
2022/05/27 09:38:48;;;;;;;20.70;1.80;;;23.00;76.90;;;;;;5056807;28;20632;-82
2022/05/27 09:41:24;;;;;;;10.40;1.70;;;23.10;77.00;;;;;;5059810;28;20274;-79
2022/05/27 09:43:58;;;;;;;10.93;1.52;;;23.10;77.00;;;;;;5063788;28;20220;-79
2022/05/27 09:46:28;;;;;;;6.75;1.30;;;23.10;76.80;;;;;;5062289;28;20192;-80
2022/05/27 09:48:57;;;;;;;4.72;1.10;;;23.10;76.60;;;;;;5061656;28;20204;-79
2022/05/27 09:51:26;;;;;;;3.33;1.23;;;23.10;76.30;;;;;;5061790;28;20204;-79
2022/05/27 09:54:10;;;;;;;6.97;1.45;;;23.20;76.20;;;;;;5063452;28;20216;-79
2022/05/27 09:56:43;;;;;;;7.68;1.27;;;23.10;75.90;;;;;;5064763;28;20283;-80
2022/05/27 09:59:22;;;;;;;6.85;1.45;;;23.20;75.80;;;;;;5063050;28;20628;-77
2022/05/27 10:01:53;;;;;;;12.25;1.48;;;23.30;75.70;;;;;;5061469;28;20211;-79
2022/05/27 10:04:21;;;;;;;3.55;0.90;;;23.20;75.80;;;;;;5061715;28;20260;-76
2022/05/27 10:06:51;;;;;;;6.18;0.90;;;23.20;75.70;;;;;;5060512;28;20204;-77
2022/05/27 10:09:33;;;;;;;4.85;1.80;;;23.30;75.80;;;;;;5061575;28;20215;-77
2022/05/27 10:12:03;;;;;;;1.27;0.80;;;23.30;75.50;;;;;;5062869;28;20198;-76
2022/05/27 10:14:33;;;;;;;5.07;1.00;;;23.30;75.50;;;;;;5060961;28;20238;-79
2022/05/27 10:17:08;;;;;;;6.22;1.30;;;23.30;76.00;;;;;;5065980;28;20254;-80
2022/05/27 10:19:37;;;;;;;3.92;1.15;;;23.30;75.00;;;;;;5065613;28;20207;-79
2022/05/27 10:22:09;;;;;;;10.00;1.35;;;23.30;74.80;;;;;;5062335;28;20220;-77
2022/05/27 10:24:38;;;;;;;5.82;1.17;;;23.30;74.80;;;;;;5061603;28;20224;-79
2022/05/27 10:27:11;;;;;;;5.97;1.13;;;23.30;74.70;;;;;;5063004;28;20222;-80
2022/05/27 10:29:51;;;;;;;6.07;1.35;;;23.30;74.60;;;;;;5062663;28;20283;-80
2022/05/27 10:32:37;;;;;;;8.30;1.67;;;23.40;74.70;;;;;;5063083;28;20199;-80
2022/05/27 10:35:06;;;;;;;12.32;2.30;;;23.40;74.50;;;;;;5060674;28;20631;-79
2022/05/27 10:37:50;;;;;;;7.72;1.45;;;23.40;74.70;;;;;;5058107;28;20283;-79
2022/05/27 10:40:33;;;;;;;5.55;1.63;;;23.40;74.40;;;;;;5058228;28;20550;-80
2022/05/27 10:43:13;;;;;;;6.50;1.83;;;23.40;74.40;;;;;;5058702;28;20224;-79
2022/05/27 10:45:44;;;;;;;8.50;1.25;;;23.40;74.50;;;;;;5057972;28;20184;-79
2022/05/27 10:48:47;;;;;;;1.70;0.80;;;23.40;74.50;;;;;;5057837;28;20184;-79
2022/05/27 10:51:25;;;;;;;18.08;1.20;;;23.40;74.10;;;;;;5057837;28;20192;-80
2022/05/27 10:54:16;;;;;;;10.27;1.40;;;23.40;74.30;;;;;;5058855;28;20223;-80
2022/05/27 11:02:04;;;;;;;13.27;1.48;;;23.40;73.90;;;;;;5058625;28;20275;-80
2022/05/27 11:02:49;;;;;;;10.55;1.70;;;23.40;74.00;;;;;;5059175;28;20231;-80
2022/05/27 11:05:29;;;;;;;7.43;1.70;;;23.40;73.80;;;;;;5058603;28;20641;-80
2022/05/27 11:08:14;;;;;;;12.35;1.38;;;23.40;73.80;;;;;;5058741;28;20212;-80
2022/05/27 11:10:49;;;;;;;7.43;1.35;;;23.40;73.60;;;;;;5058557;28;20271;-80
2022/05/27 11:16:31;;;;;;;4.82;1.10;;;23.40;73.40;;;;;;5058365;28;20222;-79
2022/05/27 11:19:18;;;;;;;12.18;1.00;;;23.40;73.40;;;;;;5057435;28;20310;-80
2022/05/27 11:21:59;;;;;;;9.32;1.65;;;23.40;73.30;;;;;;5056406;28;20550;-80
2022/05/27 11:25:13;;;;;;;2.67;1.00;;;23.40;73.30;;;;;;5056917;28;20288;-80
2022/05/27 11:27:51;;;;;;;4.28;1.15;;;23.40;72.90;;;;;;5029971;28;20210;-80
2022/05/27 11:30:31;;;;;;;8.23;1.10;;;23.40;73.20;;;;;;5058343;28;20192;-80
2022/05/27 11:33:09;;;;;;;5.20;1.02;;;23.40;73.10;;;;;;5058112;28;20283;-80
2022/05/27 11:35:51;;;;;;;5.60;0.82;;;23.40;72.90;;;;;;5059117;28;20215;-80
2022/05/27 11:38:39;;;;;;;10.18;1.35;;;23.40;72.90;;;;;;5058972;28;20212;-80
2022/05/27 11:41:11;;;;;;;3.30;0.80;;;23.40;72.70;;;;;;5058831;28;20184;-80
2022/05/27 11:43:49;;;;;;;5.03;0.80;;;23.40;72.70;;;;;;5058253;28;20235;-81
2022/05/27 11:46:49;;;;;;;8.68;1.27;;;23.40;72.60;;;;;;5058540;28;20714;-80
2022/05/27 11:49:31;;;;;;;4.85;1.02;;;23.50;72.40;;;;;;5055102;28;20291;-81
2022/05/27 11:52:11;;;;;;;4.20;1.15;;;23.40;72.50;;;;;;5057608;28;20275;-80
2022/05/27 11:55:04;;;;;;;5.75;1.13;;;23.40;72.40;;;;;;5057785;28;20617;-80
2022/05/27 11:57:44;;;;;;;3.55;0.82;;;23.40;72.30;;;;;;5055893;28;20659;-80
2022/05/27 12:00:16;;;;;;;1.35;0.70;;;23.40;72.30;;;;;;5056336;28;20537;-80
2022/05/27 12:02:52;;;;;;;1.88;0.98;;;23.40;72.30;;;;;;5055646;28;20205;-80
2022/05/27 12:05:25;;;;;;;2.75;1.05;;;23.40;72.10;;;;;;5056334;28;20184;-80
2022/05/27 12:07:58;;;;;;;2.90;0.75;;;23.40;72.10;;;;;;5057811;28;20180;-80
2022/05/27 12:10:27;;;;;;;1.90;0.90;;;23.40;72.10;;;;;;5057162;28;20188;-81
2022/05/27 12:13:02;;;;;;;6.38;0.98;;;23.40;72.00;;;;;;5057401;28;20303;-79
2022/05/27 12:15:33;;;;;;;1.60;0.90;;;23.50;71.90;;;;;;5058091;28;20248;-80
2022/05/27 12:18:02;;;;;;;6.80;1.63;;;23.40;71.80;;;;;;5058059;28;20204;-81
2022/05/27 12:20:33;;;;;;;3.92;1.20;;;23.50;71.70;;;;;;5057544;28;20196;-80
2022/05/27 12:23:05;;;;;;;8.27;0.93;;;23.40;71.50;;;;;;5057882;28;20315;-80
2022/05/27 12:25:38;;;;;;;2.92;0.95;;;23.50;71.50;;;;;;5057420;28;20189;-81
2022/05/27 12:28:06;;;;;;;3.60;1.13;;;23.50;71.50;;;;;;5057374;28;20363;-80
2022/05/27 12:30:39;;;;;;;3.20;1.13;;;23.50;71.50;;;;;;5057422;28;20600;-80
2022/05/27 12:33:07;;;;;;;3.50;1.10;;;23.50;71.50;;;;;;5053279;28;20687;-76
2022/05/27 12:35:53;;;;;;;3.55;0.90;;;23.50;71.60;;;;;;5053002;28;20196;-76
2022/05/27 12:38:25;;;;;;;5.22;1.10;;;23.50;71.50;;;;;;5054764;28;20215;-76
2022/05/27 12:40:53;;;;;;;3.95;1.02;;;23.50;71.60;;;;;;5058090;28;20191;-76
2022/05/27 12:43:24;;;;;;;3.65;0.85;;;23.50;71.50;;;;;;5058171;28;20230;-76
2022/05/27 12:45:53;;;;;;;4.25;0.90;;;23.50;71.50;;;;;;5057929;28;20194;-76
2022/05/27 12:48:33;;;;;;;6.80;1.02;;;23.50;71.50;;;;;;5058008;28;20283;-77
2022/05/27 12:51:04;;;;;;;10.75;1.40;;;23.50;71.50;;;;;;5058035;28;20266;-76
2022/05/27 12:53:53;;;;;;;14.35;1.50;;;23.50;71.50;;;;;;5057350;28;20222;-77
2022/05/27 13:02:49;;;;;;;5.72;1.30;;;23.50;71.60;;;;;;5056237;28;20674;-77
2022/05/27 13:05:18;;;;;;;11.32;1.10;;;23.50;71.60;;;;;;5056158;28;20607;-77
2022/05/27 13:07:52;;;;;;;11.40;1.77;;;23.50;71.50;;;;;;5056086;28;20203;-77
2022/05/27 13:10:53;;;;;;;7.40;1.20;;;23.50;71.50;;;;;;5055862;28;20186;-77
2022/05/27 13:13:25;;;;;;;9.27;1.77;;;23.50;71.60;;;;;;5056014;28;20215;-77
2022/05/27 13:16:05;;;;;;;6.85;1.13;;;23.50;71.50;;;;;;5056660;28;20207;-77
2022/05/27 13:18:39;;;;;;;5.80;1.35;;;23.60;71.70;;;;;;5055990;28;20271;-77
2022/05/27 13:21:12;;;;;;;4.60;0.82;;;23.60;71.70;;;;;;5056836;28;20636;-77
2022/05/27 13:24:00;;;;;;;7.25;0.95;;;23.60;71.70;;;;;;5057436;28;20702;-77
2022/05/27 13:26:42;;;;;;;7.40;1.13;;;23.60;71.70;;;;;;5055804;28;20193;-77
2022/05/27 13:29:28;;;;;;;4.60;1.15;;;23.60;71.70;;;;;;5055352;28;20555;-77
2022/05/27 13:31:59;;;;;;;9.55;1.17;;;23.60;71.70;;;;;;5055692;28;20184;-77
2022/05/27 13:34:36;;;;;;;6.28;1.02;;;23.60;71.70;;;;;;5055807;28;20251;-77
2022/05/27 13:37:06;;;;;;;2.63;0.93;;;23.60;71.70;;;;;;5055590;28;20184;-77
2022/05/27 13:39:41;;;;;;;10.65;1.55;;;23.60;71.70;;;;;;5055561;28;20185;-77
2022/05/27 13:42:12;;;;;;;6.88;1.27;;;23.60;71.70;;;;;;5055782;28;20246;-77